createdAt,value
2018-10-17T00:02:22.852Z,9.93
2018-10-17T00:04:53.575Z,7.93
2018-10-17T00:07:24.199Z,8.20
2018-10-17T00:09:54.830Z,7.57
2018-10-17T00:12:25.469Z,7.67
2018-10-17T00:14:56.222Z,8.07
2018-10-17T00:17:26.886Z,7.77
2018-10-17T00:19:57.595Z,7.70
2018-10-17T00:22:28.217Z,8.37
2018-10-17T00:24:58.916Z,7.07
2018-10-17T00:27:29.561Z,9.60
2018-10-17T00:30:00.255Z,10.50
2018-10-17T00:32:30.917Z,7.70
2018-10-17T00:35:01.758Z,6.70
2018-10-17T00:37:32.272Z,7.20
2018-10-17T00:40:02.941Z,7.03
2018-10-17T00:42:33.579Z,6.40
2018-10-17T00:45:04.311Z,6.87
2018-10-17T00:47:34.969Z,6.47
2018-10-17T00:50:05.763Z,6.47
2018-10-17T00:52:36.447Z,6.17
2018-10-17T00:55:07.792Z,6.10
2018-10-17T00:57:38.413Z,6.00
2018-10-17T01:00:09.130Z,5.80
2018-10-17T01:02:39.827Z,6.47
2018-10-17T01:05:10.660Z,6.67
2018-10-17T01:07:41.540Z,5.50
2018-10-17T01:10:12.250Z,5.27
2018-10-17T01:12:43.112Z,6.17
2018-10-17T01:15:14.822Z,5.37
2018-10-17T01:17:45.559Z,5.00
2018-10-17T01:20:16.280Z,5.87
2018-10-17T01:22:46.952Z,5.07
2018-10-17T01:25:17.607Z,4.90
2018-10-17T01:27:48.213Z,5.00
2018-10-17T01:30:18.876Z,5.13
2018-10-17T01:32:49.503Z,4.97
2018-10-17T01:35:20.215Z,5.77
2018-10-17T01:37:50.883Z,4.80
2018-10-17T01:40:21.537Z,4.73
2018-10-17T01:42:52.196Z,5.30
2018-10-17T01:45:22.849Z,5.10
2018-10-17T01:47:53.399Z,4.83
2018-10-17T01:50:24.010Z,5.23
2018-10-17T01:52:54.652Z,5.63
2018-10-17T01:55:25.316Z,5.43
2018-10-17T01:57:55.866Z,5.30
2018-10-17T02:00:26.498Z,5.87
2018-10-17T02:02:57.142Z,5.50
2018-10-17T02:05:27.808Z,5.63
2018-10-17T02:07:58.442Z,5.00
2018-10-17T02:10:29.069Z,5.60
2018-10-17T02:12:59.719Z,5.20
2018-10-17T02:15:30.378Z,7.60
2018-10-17T02:18:00.997Z,5.57
2018-10-17T02:20:31.646Z,5.40
2018-10-17T02:23:02.546Z,5.47
2018-10-17T02:25:33.226Z,5.63
2018-10-17T02:28:03.880Z,6.00
2018-10-17T02:30:34.557Z,5.90
2018-10-17T02:33:05.285Z,5.93
2018-10-17T02:35:35.931Z,6.63
2018-10-17T02:38:06.696Z,5.80
2018-10-17T02:40:37.374Z,6.00
2018-10-17T02:43:08.134Z,5.57
2018-10-17T02:45:38.630Z,5.47
2018-10-17T02:48:09.248Z,5.33
2018-10-17T02:50:39.875Z,5.73
2018-10-17T02:53:10.512Z,5.10
2018-10-17T02:55:41.153Z,6.00
2018-10-17T02:58:11.825Z,5.00
2018-10-17T03:00:42.462Z,4.00
2018-10-17T03:03:44.088Z,4.10
2018-10-17T03:06:14.911Z,4.20
2018-10-17T03:08:45.587Z,5.33
2018-10-17T03:11:16.321Z,3.63
2018-10-17T03:13:46.903Z,3.83
2018-10-17T03:16:17.508Z,3.00
2018-10-17T03:18:48.144Z,3.30
2018-10-17T03:21:18.859Z,3.30
2018-10-17T03:23:49.449Z,3.43
2018-10-17T03:26:20.111Z,2.97
2018-10-17T03:28:50.748Z,2.70
2018-10-17T03:31:21.430Z,2.80
2018-10-17T03:33:51.964Z,2.57
2018-10-17T03:36:22.626Z,2.60
2018-10-17T03:38:53.224Z,2.70
2018-10-17T03:41:23.882Z,2.70
2018-10-17T03:43:54.515Z,2.80
2018-10-17T03:46:25.185Z,2.90
2018-10-17T03:48:55.811Z,2.77
2018-10-17T03:51:26.459Z,3.40
2018-10-17T03:53:57.122Z,2.90
2018-10-17T03:56:28.121Z,3.00
2018-10-17T03:58:58.737Z,3.20
2018-10-17T04:01:29.694Z,2.83
2018-10-17T04:04:00.280Z,3.83
2018-10-17T04:06:30.942Z,4.20
2018-10-17T04:09:01.641Z,2.87
2018-10-17T04:11:32.258Z,3.43
2018-10-17T04:14:02.997Z,3.07
2018-10-17T04:16:33.654Z,2.70
2018-10-17T04:19:04.407Z,4.83
2018-10-17T04:21:35.062Z,4.00
2018-10-17T04:24:06.020Z,3.43
2018-10-17T04:26:36.782Z,3.97
2018-10-17T04:29:07.420Z,3.17
2018-10-17T04:31:38.011Z,4.57
2018-10-17T04:34:08.687Z,2.90
2018-10-17T04:36:39.369Z,3.40
2018-10-17T04:39:11.741Z,3.40
2018-10-17T04:41:42.681Z,3.70
2018-10-17T04:44:13.314Z,3.20
2018-10-17T04:46:44.008Z,3.47
2018-10-17T04:49:14.727Z,3.80
2018-10-17T04:51:45.287Z,4.23
2018-10-17T04:54:15.930Z,3.40
2018-10-17T04:56:46.560Z,3.70
2018-10-17T04:59:17.262Z,3.60
2018-10-17T05:01:47.856Z,3.50
2018-10-17T05:04:18.557Z,3.40
2018-10-17T05:06:49.193Z,4.00
2018-10-17T05:09:19.742Z,3.20
2018-10-17T05:11:50.365Z,3.27
2018-10-17T05:14:21.037Z,3.27
2018-10-17T05:16:51.638Z,3.30
2018-10-17T05:19:22.237Z,3.50
2018-10-17T05:21:52.936Z,4.00
2018-10-17T05:24:23.493Z,3.40
2018-10-17T05:26:54.191Z,3.40
2018-10-17T05:29:24.803Z,3.77
2018-10-17T05:31:55.643Z,4.30
2018-10-17T05:34:26.296Z,5.27
2018-10-17T05:36:57.008Z,5.07
2018-10-17T05:39:27.645Z,7.57
2018-10-17T05:41:58.315Z,6.13
2018-10-17T05:44:28.976Z,5.80
2018-10-17T05:46:59.984Z,5.23
2018-10-17T05:49:30.616Z,8.97
2018-10-17T05:52:01.283Z,9.17
2018-10-17T05:54:31.851Z,5.90
2018-10-17T05:57:02.548Z,6.53
2018-10-17T05:59:33.193Z,5.40
2018-10-17T06:02:14.380Z,8.10
2018-10-17T06:04:44.968Z,5.57
2018-10-17T06:07:15.643Z,5.43
2018-10-17T06:09:46.294Z,5.00
2018-10-17T06:12:17.266Z,8.13
2018-10-17T06:14:47.870Z,7.03
2018-10-17T06:17:18.509Z,5.97
2018-10-17T06:19:49.229Z,5.93
2018-10-17T06:22:19.894Z,6.13
2018-10-17T06:24:50.598Z,4.97
2018-10-17T06:27:21.187Z,5.10
2018-10-17T06:29:51.804Z,5.77
2018-10-17T06:32:22.533Z,7.00
2018-10-17T06:34:53.197Z,5.50
2018-10-17T06:37:23.764Z,6.43
2018-10-17T06:39:54.408Z,5.37
2018-10-17T06:42:25.042Z,8.00
2018-10-17T06:44:55.787Z,5.70
2018-10-17T06:47:26.430Z,5.80
2018-10-17T06:49:57.102Z,5.70
2018-10-17T06:52:27.833Z,9.87
2018-10-17T06:54:58.549Z,7.73
2018-10-17T06:57:29.111Z,6.00
2018-10-17T06:59:59.739Z,9.93
2018-10-17T07:02:30.391Z,9.53
2018-10-17T07:05:01.116Z,8.30
2018-10-17T07:07:31.712Z,9.07
2018-10-17T07:10:02.409Z,7.43
2018-10-17T07:12:33.069Z,7.77
2018-10-17T07:15:03.730Z,12.37
2018-10-17T07:17:34.342Z,10.70
2018-10-17T07:20:05.604Z,12.20
2018-10-17T07:22:36.219Z,10.37
2018-10-17T07:25:07.171Z,11.33
2018-10-17T07:27:37.980Z,7.07
2018-10-17T07:30:09.763Z,14.93
2018-10-17T07:32:40.388Z,10.93
2018-10-17T07:35:11.947Z,6.93
2018-10-17T07:37:42.619Z,6.37
2018-10-17T07:40:13.248Z,8.83
2018-10-17T07:42:43.928Z,7.57
2018-10-17T07:45:14.579Z,6.33
2018-10-17T07:47:45.266Z,9.87
2018-10-17T07:50:15.956Z,6.10
2018-10-17T07:52:46.630Z,8.30
2018-10-17T07:55:17.324Z,10.33
2018-10-17T07:57:47.939Z,11.80
2018-10-17T08:00:18.661Z,5.57
2018-10-17T08:02:49.381Z,13.63
2018-10-17T08:05:20.026Z,9.63
2018-10-17T08:07:50.724Z,6.13
2018-10-17T08:10:21.352Z,17.00
2018-10-17T08:12:52.133Z,39.27
2018-10-17T08:15:22.871Z,43.93
2018-10-17T08:17:53.670Z,26.83
2018-10-17T08:20:24.336Z,17.97
2018-10-17T08:22:54.999Z,11.83
2018-10-17T08:25:25.647Z,10.97
2018-10-17T08:27:56.331Z,11.37
2018-10-17T08:30:26.999Z,9.70
2018-10-17T08:32:57.661Z,6.13
2018-10-17T08:35:28.403Z,8.47
2018-10-17T08:37:59.005Z,9.20
2018-10-17T08:40:29.597Z,7.93
2018-10-17T08:43:00.260Z,7.90
2018-10-17T08:45:30.900Z,9.17
2018-10-17T08:48:01.520Z,6.70
2018-10-17T08:50:32.201Z,10.27
2018-10-17T08:53:02.800Z,6.73
2018-10-17T08:55:33.451Z,10.97
2018-10-17T08:58:04.114Z,7.50
2018-10-17T09:00:34.768Z,8.63
2018-10-17T09:03:05.612Z,10.57
2018-10-17T09:05:36.243Z,8.70
2018-10-17T09:08:07.190Z,14.93
2018-10-17T09:10:37.756Z,16.40
2018-10-17T09:13:08.438Z,13.37
2018-10-17T09:15:39.082Z,10.80
2018-10-17T09:18:09.741Z,13.10
2018-10-17T09:20:40.555Z,9.90
2018-10-17T09:23:11.066Z,5.20
2018-10-17T09:25:41.770Z,4.07
2018-10-17T09:28:12.488Z,4.37
2018-10-17T09:30:43.135Z,4.70
2018-10-17T09:33:13.678Z,4.47
2018-10-17T09:35:44.344Z,5.60
2018-10-17T09:38:14.943Z,4.43
2018-10-17T09:40:45.596Z,5.83
2018-10-17T09:43:16.328Z,5.93
2018-10-17T09:45:46.921Z,4.80
2018-10-17T09:48:17.629Z,4.20
2018-10-17T09:50:48.204Z,7.70
2018-10-17T09:53:18.878Z,7.53
2018-10-17T09:55:49.509Z,5.67
2018-10-17T09:58:20.203Z,5.90
2018-10-17T10:00:55.917Z,4.50
2018-10-17T10:03:26.550Z,6.10
2018-10-17T10:05:57.379Z,4.70
2018-10-17T10:08:28.005Z,4.43
2018-10-17T10:10:58.663Z,6.17
2018-10-17T10:13:29.508Z,6.33
2018-10-17T10:16:00.131Z,5.10
2018-10-17T10:18:30.698Z,5.53
2018-10-17T10:21:01.370Z,5.07
2018-10-17T10:23:32.105Z,4.30
2018-10-17T10:26:02.752Z,4.23
2018-10-17T10:28:33.433Z,5.30
2018-10-17T10:31:35.238Z,5.27
2018-10-17T10:34:06.061Z,8.13
2018-10-17T10:36:36.613Z,6.17
2018-10-17T10:39:10.988Z,5.13
2018-10-17T10:41:41.904Z,7.23
2018-10-17T10:44:12.579Z,5.23
2018-10-17T10:46:43.209Z,6.80
2018-10-17T10:49:13.902Z,9.03
2018-10-17T10:51:44.646Z,6.00
2018-10-17T10:54:15.250Z,4.70
2018-10-17T10:56:45.871Z,6.80
2018-10-17T10:59:16.531Z,6.83
2018-10-17T11:01:47.130Z,6.73
2018-10-17T11:04:17.700Z,6.83
2018-10-17T11:06:48.425Z,7.73
2018-10-17T11:09:19.790Z,7.00
2018-10-17T11:11:50.503Z,7.53
2018-10-17T11:14:21.470Z,7.57
2018-10-17T11:16:51.891Z,7.70
2018-10-17T11:19:22.485Z,6.73
2018-10-17T11:21:53.184Z,8.77
2018-10-17T11:24:24.078Z,6.50
2018-10-17T11:26:54.732Z,6.97
2018-10-17T11:29:25.330Z,10.57
2018-10-17T11:31:55.975Z,5.53
2018-10-17T11:34:26.650Z,7.13
2018-10-17T11:36:57.216Z,6.93
2018-10-17T11:39:27.855Z,8.73
2018-10-17T11:44:59.593Z,7.57
2018-10-17T11:47:30.258Z,6.07
2018-10-17T11:50:01.053Z,7.10
2018-10-17T11:52:31.992Z,5.87
2018-10-17T11:55:02.633Z,5.97
2018-10-17T11:57:33.318Z,5.30
2018-10-17T12:00:04.310Z,9.07
2018-10-17T12:02:34.958Z,5.67
2018-10-17T12:05:07.852Z,6.70
2018-10-17T12:07:38.142Z,6.60
2018-10-17T12:10:09.146Z,5.70
2018-10-17T12:12:39.799Z,7.43
2018-10-17T12:15:14.560Z,7.10
2018-10-17T12:17:45.187Z,8.07
2018-10-17T12:20:16.285Z,6.87
2018-10-17T12:22:46.865Z,7.73
2018-10-17T12:25:17.575Z,6.57
2018-10-17T12:27:48.290Z,8.23
2018-10-17T12:30:19.034Z,6.37
2018-10-17T12:32:49.566Z,8.83
2018-10-17T12:35:20.345Z,7.73
2018-10-17T12:37:50.828Z,5.33
2018-10-17T12:40:21.548Z,6.60
2018-10-17T12:42:52.178Z,5.47
2018-10-17T12:45:22.868Z,5.73
2018-10-17T12:47:53.542Z,5.47
2018-10-17T12:50:24.262Z,5.40
2018-10-17T12:52:54.930Z,6.53
2018-10-17T12:55:25.464Z,5.37
2018-10-17T12:57:56.068Z,9.10
2018-10-17T13:00:26.723Z,7.47
2018-10-17T13:02:57.398Z,5.97
2018-10-17T13:05:28.067Z,5.87
2018-10-17T13:07:59.106Z,5.40
2018-10-17T13:10:29.724Z,7.10
2018-10-17T13:13:02.008Z,5.43
2018-10-17T13:15:32.714Z,5.17
2018-10-17T13:18:03.501Z,7.77
2018-10-17T13:20:34.172Z,9.07
2018-10-17T13:23:04.906Z,7.63
2018-10-17T13:25:35.556Z,7.33
2018-10-17T13:28:06.308Z,7.67
2018-10-17T13:30:36.959Z,6.53
2018-10-17T13:33:07.708Z,8.17
2018-10-17T13:35:38.365Z,8.83
2018-10-17T13:38:09.071Z,9.00
2018-10-17T13:40:39.716Z,8.47
2018-10-17T13:43:10.539Z,9.03
2018-10-17T13:45:41.271Z,7.30
2018-10-17T13:48:11.999Z,10.90
2018-10-17T13:50:42.663Z,10.37
2018-10-17T13:53:13.392Z,8.97
2018-10-17T13:55:44.043Z,8.60
2018-10-17T13:58:14.355Z,13.00
2018-10-17T14:00:45.012Z,9.77
2018-10-17T14:03:15.667Z,8.27
2018-10-17T14:05:46.338Z,7.67
2018-10-17T14:08:16.991Z,12.27
2018-10-17T14:10:47.632Z,10.20
2018-10-17T14:13:18.306Z,8.17
2018-10-17T14:15:48.934Z,10.13
2018-10-17T14:18:19.643Z,11.40
2018-10-17T14:20:50.281Z,10.07
2018-10-17T14:23:20.932Z,8.83
2018-10-17T14:25:51.578Z,8.40
2018-10-17T14:28:22.239Z,9.83
2018-10-17T14:30:52.884Z,9.47
2018-10-17T14:33:23.499Z,8.50
2018-10-17T14:35:54.325Z,7.27
2018-10-17T14:38:24.939Z,14.30
2018-10-17T14:40:55.613Z,8.13
2018-10-17T14:43:26.292Z,7.33
2018-10-17T14:45:56.980Z,8.87
2018-10-17T14:48:27.671Z,6.60
2018-10-17T14:50:58.307Z,8.20
2018-10-17T14:53:28.992Z,9.97
2018-10-17T14:55:59.698Z,8.60
2018-10-17T14:58:30.341Z,8.97
2018-10-17T15:01:01.032Z,9.13
2018-10-17T15:03:31.693Z,12.40
2018-10-17T15:06:02.424Z,11.90
2018-10-17T15:08:33.068Z,7.93
2018-10-17T15:11:03.959Z,10.13
2018-10-17T15:13:34.366Z,12.30
2018-10-17T15:16:05.038Z,8.83
2018-10-17T15:18:35.704Z,9.47
2018-10-17T15:21:06.581Z,9.60
2018-10-17T15:23:37.190Z,9.73
2018-10-17T15:26:07.902Z,11.70
2018-10-17T15:28:38.535Z,14.80
2018-10-17T15:31:09.274Z,8.70
2018-10-17T15:33:39.883Z,8.77
2018-10-17T15:36:10.684Z,10.70
2018-10-17T15:38:41.314Z,13.83
2018-10-17T15:41:11.943Z,9.27
2018-10-17T15:43:42.782Z,12.30
2018-10-17T15:46:13.424Z,11.20
2018-10-17T15:48:44.094Z,13.47
2018-10-17T15:51:14.763Z,13.70
2018-10-17T15:53:45.470Z,21.47
2018-10-17T15:56:16.153Z,17.67
2018-10-17T15:58:46.912Z,15.10
2018-10-17T16:01:17.686Z,15.77
2018-10-17T16:03:48.367Z,18.27
2018-10-17T16:06:19.094Z,17.73
2018-10-17T16:08:49.664Z,14.13
2018-10-17T16:11:20.398Z,14.50
2018-10-17T16:13:51.036Z,15.67
2018-10-17T16:16:21.725Z,13.97
2018-10-17T16:18:52.450Z,12.43
2018-10-17T16:21:23.665Z,13.63
2018-10-17T16:23:54.370Z,18.20
2018-10-17T16:26:25.807Z,12.93
2018-10-17T16:28:56.474Z,12.77
2018-10-17T16:31:27.160Z,17.33
2018-10-17T16:33:57.855Z,15.70
2018-10-17T16:36:28.533Z,11.87
2018-10-17T16:38:59.207Z,15.60
2018-10-17T16:41:29.952Z,17.27
2018-10-17T16:44:00.560Z,19.43
2018-10-17T16:49:32.113Z,12.97
2018-10-17T16:52:02.830Z,13.93
2018-10-17T16:54:33.553Z,11.07
2018-10-17T16:57:04.286Z,14.33
2018-10-17T16:59:34.924Z,12.67
2018-10-17T17:02:06.148Z,16.23
2018-10-17T17:04:36.854Z,14.90
2018-10-17T17:07:07.496Z,13.30
2018-10-17T17:09:38.212Z,13.63
2018-10-17T17:12:08.884Z,13.57
2018-10-17T17:14:39.610Z,14.43
2018-10-17T17:17:10.342Z,14.30
2018-10-17T17:19:41.041Z,12.80
2018-10-17T17:22:11.769Z,16.30
2018-10-17T17:24:42.448Z,16.37
2018-10-17T17:27:13.322Z,11.97
2018-10-17T17:29:43.968Z,12.37
2018-10-17T17:32:14.582Z,14.20
2018-10-17T17:34:45.557Z,15.80
2018-10-17T17:37:16.210Z,15.07
2018-10-17T17:39:46.852Z,14.73
2018-10-17T17:42:48.509Z,14.27
2018-10-17T17:45:19.263Z,14.77
2018-10-17T17:51:23.572Z,12.57
2018-10-17T17:53:54.217Z,13.87
2018-10-17T17:56:24.876Z,17.87
2018-10-17T17:58:55.676Z,15.83
2018-10-17T18:01:26.420Z,17.67
2018-10-17T18:03:57.126Z,16.30
2018-10-17T18:06:27.892Z,15.33
2018-10-17T18:08:58.624Z,17.37
2018-10-17T18:11:29.317Z,15.77
2018-10-17T18:14:00.049Z,18.10
2018-10-17T18:16:30.728Z,16.47
2018-10-17T18:19:01.464Z,16.63
2018-10-17T18:21:32.110Z,16.27
2018-10-17T18:24:02.805Z,19.07
2018-10-17T18:26:33.567Z,23.03
2018-10-17T18:31:40.388Z,20.23
2018-10-17T18:34:11.229Z,19.97
2018-10-17T18:36:41.887Z,24.73
2018-10-17T18:39:12.637Z,26.40
2018-10-17T18:41:43.274Z,26.40
2018-10-17T18:44:13.994Z,25.90
2018-10-17T18:46:44.639Z,28.20
2018-10-17T18:49:15.275Z,25.50
2018-10-17T18:51:45.997Z,25.27
2018-10-17T18:54:16.712Z,26.33
2018-10-17T18:56:47.480Z,24.97
2018-10-17T18:59:18.239Z,26.30
2018-10-17T19:01:48.951Z,25.43
2018-10-17T19:04:19.728Z,27.60
2018-10-17T19:06:50.411Z,30.63
2018-10-17T19:09:21.234Z,29.20
2018-10-17T19:11:51.895Z,30.47
2018-10-17T19:14:22.743Z,30.90
2018-10-17T19:16:53.457Z,32.37
2018-10-17T19:19:24.134Z,29.60
2018-10-17T19:21:54.918Z,29.47
2018-10-17T19:24:25.629Z,30.17
2018-10-17T19:26:56.436Z,28.27
2018-10-17T19:29:27.114Z,27.93
2018-10-17T19:31:57.798Z,32.13
2018-10-17T19:34:28.472Z,33.73
2018-10-17T19:36:59.247Z,28.83
2018-10-17T19:39:29.978Z,28.23
2018-10-17T19:42:00.721Z,32.73
2018-10-17T19:44:31.352Z,28.57
2018-10-17T19:47:02.041Z,35.27
2018-10-17T19:49:32.728Z,36.27
2018-10-17T19:52:03.423Z,30.23
2018-10-17T19:54:34.156Z,29.77
2018-10-17T19:57:04.797Z,35.37
2018-10-17T19:59:35.491Z,39.00
2018-10-17T20:02:07.197Z,32.00
2018-10-17T20:04:37.873Z,33.07
2018-10-17T20:07:08.749Z,33.90
2018-10-17T20:09:39.482Z,36.40
2018-10-17T20:12:10.165Z,34.10
2018-10-17T20:14:40.869Z,34.17
2018-10-17T20:17:11.669Z,39.43
2018-10-17T20:19:42.335Z,38.43
2018-10-17T20:22:16.375Z,32.10
2018-10-17T20:24:47.260Z,34.03
2018-10-17T20:27:18.349Z,36.83
2018-10-17T20:29:49.144Z,41.27
2018-10-17T20:32:19.792Z,36.40
2018-10-17T20:34:50.398Z,37.63
2018-10-17T20:37:21.099Z,38.80
2018-10-17T20:39:51.745Z,35.97
2018-10-17T20:42:22.526Z,35.33
2018-10-17T20:44:53.175Z,33.23
2018-10-17T20:47:23.949Z,35.93
2018-10-17T20:49:54.679Z,36.23
2018-10-17T20:52:25.490Z,35.77
2018-10-17T20:54:56.197Z,40.13
2018-10-17T20:57:26.883Z,39.13
2018-10-17T20:59:57.528Z,40.87
2018-10-17T21:02:28.401Z,37.20
2018-10-17T21:04:59.003Z,39.97
2018-10-17T21:07:29.770Z,36.03
2018-10-17T21:10:00.464Z,39.53
2018-10-17T21:12:31.152Z,42.47
2018-10-17T21:15:01.833Z,41.27
2018-10-17T21:17:32.550Z,40.30
2018-10-17T21:20:03.303Z,35.30
2018-10-17T21:22:33.988Z,40.60
2018-10-17T21:25:04.716Z,40.73
2018-10-17T21:27:35.764Z,43.80
2018-10-17T21:30:07.930Z,41.57
2018-10-17T21:32:38.607Z,44.83
2018-10-17T21:35:09.288Z,42.20
2018-10-17T21:37:40.046Z,41.87
2018-10-17T21:40:10.696Z,40.33
2018-10-17T21:42:41.423Z,41.87
2018-10-17T21:45:11.823Z,42.87
2018-10-17T21:47:42.667Z,44.03
2018-10-17T21:50:13.647Z,39.17
2018-10-17T21:52:44.332Z,43.47
2018-10-17T21:55:15.074Z,43.23
2018-10-17T21:57:45.805Z,43.93
2018-10-17T22:00:16.651Z,39.13
2018-10-17T22:02:47.364Z,43.60
2018-10-17T22:05:18.093Z,42.20
2018-10-17T22:07:48.795Z,45.73
2018-10-17T22:10:19.497Z,44.43
2018-10-17T22:12:50.173Z,44.47
2018-10-17T22:15:20.874Z,43.67
2018-10-17T22:17:51.544Z,46.07
2018-10-17T22:20:22.198Z,44.50
2018-10-17T22:22:52.949Z,44.37
2018-10-17T22:25:23.674Z,39.60
2018-10-17T22:27:54.421Z,41.20
2018-10-17T22:30:25.087Z,43.07
2018-10-17T22:32:55.786Z,44.03
2018-10-17T22:35:26.451Z,41.63
2018-10-17T22:37:59.801Z,46.07
2018-10-17T22:40:30.509Z,44.53
2018-10-17T22:43:01.210Z,39.90
2018-10-17T22:45:31.999Z,41.53
2018-10-17T22:48:02.778Z,42.30
2018-10-17T22:50:33.407Z,44.87
2018-10-17T22:53:05.119Z,49.83
2018-10-17T22:55:35.788Z,44.10
2018-10-17T22:58:06.899Z,47.00
2018-10-17T23:00:37.875Z,49.97
2018-10-17T23:03:08.600Z,49.30
2018-10-17T23:05:39.211Z,44.47
2018-10-17T23:08:10.117Z,47.70
2018-10-17T23:10:40.625Z,42.57
2018-10-17T23:13:11.274Z,43.90
2018-10-17T23:15:42.034Z,42.37
2018-10-17T23:18:12.707Z,44.17
2018-10-17T23:20:43.402Z,41.40
2018-10-17T23:23:14.034Z,45.43
2018-10-17T23:25:44.725Z,42.57
2018-10-17T23:28:15.469Z,43.17
2018-10-17T23:30:46.206Z,45.03
2018-10-17T23:33:16.915Z,44.17
2018-10-17T23:35:47.604Z,45.30
2018-10-17T23:38:18.598Z,43.33
2018-10-17T23:40:49.319Z,47.87
2018-10-17T23:43:20.007Z,46.47
2018-10-17T23:45:50.656Z,42.33
2018-10-17T23:48:21.295Z,45.83
2018-10-17T23:50:51.949Z,46.80
2018-10-17T23:53:22.612Z,45.73
2018-10-17T23:55:53.241Z,44.40
2018-10-17T23:58:23.907Z,43.27
